Newbridge, United Kingdom
Current Conditions -  °F | °C
As of 2:50 PM on Sunday 21 Dec 2014 (Local Time) from EGPH Reporting Station
Broken Clouds Broken Clouds  
Wind Chill: 54°   Ceiling: 1500
Heat Index: 54°   Visibility: 6mi
Dew Point: 48°   Wind: 26mph
Humidity: 82%   Direction: 240°WSW
Pressure: 29.71"   Gusts: 40mph
Location:  55.93°N, 3.4°W
Report Text: EGPH 211450Z 24023G35KT 9999 BKN015 12/09 Q1006
Loading
Personal Weather Stations






























Interactive Weather Map New forecast layout! Learn more

10-Day Weather Forecast

Advertisements
Track Severe Weather on mobile